Park Rapids, Minnesota
Current Conditions -  °F | °C
As of 11:53 PM on Thursday 27 Nov 2014 (Local Time) from KPKD Reporting Station
Light Snow Light Snow  
Wind Chill: -23°   Ceiling: 3400
Heat Index: -15°   Visibility: 6mi
Dew Point: -17°   Wind: 9mph
Humidity: 84%   Direction: 140°SE
Pressure: 30.13"   Gusts: NA
Location:  46.92°N, 95.06°W
Report Text: KPKD 280553Z AUTO 14008KT 6SM -SN BR BKN034 OVC070 M15/M17 A3013 RMK AO2 SLP241 P0000 60000 T11501172 11144 21150 411331272 56021
Loading
Personal Weather Stations






























Interactive Weather Map New forecast layout! Learn more

10-Day Weather Forecast

Advertisements
Track Severe Weather on mobile